Time;durP1;ratioP1;P1;durP2;ratioP2;P2;SDS_P1;SDS_P2;PMS_P1;PMS_P2;Temp;Humidity;BMP_temperature;BMP_pressure;BME280_temperature;BME280_humidity;BME280_pressure;Samples;Min_cycle;Max_cycle;Signal;HPM_P1;HPM_P2
2023/06/16 00:00:38;;;;;;;4.10;3.80;;;;;23.50;100757.00;;;;2080862;28;20784;-55
2023/06/16 00:01:39;;;;;;;4.13;3.83;;;;;23.50;100754.00;;;;2074904;28;20297;-56
2023/06/16 00:02:41;;;;;;;4.80;4.27;;;;;23.50;100755.00;;;;2071065;28;20461;-55
2023/06/16 00:03:43;;;;;;;4.68;4.00;;;;;23.50;100761.00;;;;2065029;28;20216;-56
2023/06/16 00:04:44;;;;;;;4.93;3.42;;;;;23.50;100757.00;;;;2067402;28;20304;-56
2023/06/16 00:05:45;;;;;;;3.60;3.30;;;;;23.50;100757.00;;;;2070731;28;20276;-55
2023/06/16 00:06:47;;;;;;;5.00;3.67;;;;;23.50;100759.00;;;;2079404;28;20209;-58
2023/06/16 00:07:48;;;;;;;5.03;3.65;;;;;23.50;100759.00;;;;2081044;28;20708;-55
2023/06/16 00:08:51;;;;;;;6.13;3.85;;;;;23.50;100757.00;;;;2067117;28;20223;-55
2023/06/16 00:09:51;;;;;;;4.03;3.17;;;;;23.50;100755.00;;;;2083697;28;20220;-56
2023/06/16 00:10:52;;;;;;;5.93;3.40;;;;;23.50;100751.00;;;;2083345;28;20213;-55
2023/06/16 00:11:53;;;;;;;3.70;3.37;;;;;23.50;100757.00;;;;2083346;28;20429;-56
2023/06/16 00:12:54;;;;;;;5.00;3.50;;;;;23.50;100757.00;;;;2077010;28;20213;-56
2023/06/16 00:13:55;;;;;;;5.40;3.63;;;;;23.50;100759.00;;;;2064709;28;20226;-55
2023/06/16 00:14:55;;;;;;;3.67;3.20;;;;;23.50;100756.00;;;;2077449;28;20319;-55
2023/06/16 00:15:55;;;;;;;4.10;3.70;;;;;23.50;100755.00;;;;2084567;28;21029;-55
2023/06/16 00:16:57;;;;;;;5.40;3.80;;;;;23.40;100757.00;;;;2084050;28;20208;-55
2023/06/16 00:17:57;;;;;;;4.85;3.60;;;;;23.50;100752.00;;;;2085519;28;20213;-55
2023/06/16 00:18:58;;;;;;;4.97;3.47;;;;;23.50;100752.00;;;;2071731;28;20229;-55
2023/06/16 00:19:58;;;;;;;3.47;3.17;;;;;23.50;100750.00;;;;2085458;28;20251;-55
2023/06/16 00:21:01;;;;;;;4.50;3.57;;;;;23.50;100763.00;;;;2083183;28;20211;-55
2023/06/16 00:22:03;;;;;;;3.83;3.45;;;;;23.20;100753.00;;;;2073418;28;20638;-55
2023/06/16 00:23:06;;;;;;;4.30;3.60;;;;;23.50;100750.00;;;;2061327;28;20717;-56
2023/06/16 00:24:08;;;;;;;4.03;3.45;;;;;23.50;100752.00;;;;2063871;28;20259;-55
2023/06/16 00:25:11;;;;;;;4.22;3.72;;;;;23.50;100753.00;;;;2076397;28;20232;-56
2023/06/16 00:26:12;;;;;;;4.00;3.60;;;;;23.50;100751.00;;;;2074264;28;20213;-55
2023/06/16 00:27:12;;;;;;;4.17;3.30;;;;;23.50;100750.00;;;;2064625;28;20722;-55
2023/06/16 00:28:13;;;;;;;4.63;3.60;;;;;23.50;100754.00;;;;2067966;28;20284;-55
2023/06/16 00:29:13;;;;;;;4.03;3.33;;;;;23.50;100745.00;;;;2075438;28;20459;-55
2023/06/16 00:30:14;;;;;;;4.30;3.57;;;;;23.40;100751.00;;;;2084909;28;20251;-55
2023/06/16 00:31:15;;;;;;;4.90;3.83;;;;;23.50;100755.00;;;;2068449;28;20238;-55
2023/06/16 00:32:15;;;;;;;4.13;3.73;;;;;23.50;100745.00;;;;2068198;28;20714;-56
2023/06/16 00:33:17;;;;;;;4.40;3.40;;;;;23.50;100746.00;;;;2083082;28;20486;-55
2023/06/16 00:34:17;;;;;;;4.65;3.75;;;;;23.50;100751.00;;;;2075390;28;20684;-57
2023/06/16 00:35:17;;;;;;;5.23;3.60;;;;;23.50;100749.00;;;;2084369;28;20217;-58
2023/06/16 00:36:18;;;;;;;5.10;3.90;;;;;23.50;100751.00;;;;2085265;28;20806;-57
2023/06/16 00:37:18;;;;;;;4.80;3.40;;;;;23.50;100750.00;;;;2084599;28;20267;-55
2023/06/16 00:38:18;;;;;;;4.73;4.33;;;;;23.50;100744.00;;;;2083437;28;20241;-55
2023/06/16 00:39:19;;;;;;;4.10;3.70;;;;;23.50;100749.00;;;;2073647;28;20266;-55
2023/06/16 00:40:19;;;;;;;3.63;3.33;;;;;23.50;100748.00;;;;2082233;28;20216;-55
2023/06/16 00:41:19;;;;;;;7.20;3.70;;;;;23.50;100748.00;;;;2083378;28;20217;-55
2023/06/16 00:42:20;;;;;;;3.83;3.50;;;;;23.20;100746.00;;;;2079151;28;20323;-54
2023/06/16 00:43:20;;;;;;;4.40;3.77;;;;;23.50;100746.00;;;;2085687;28;20204;-55
2023/06/16 00:44:20;;;;;;;4.27;3.87;;;;;23.50;100745.00;;;;2075326;28;20236;-55
2023/06/16 00:45:21;;;;;;;3.63;3.33;;;;;23.50;100746.00;;;;2077399;28;20241;-55
2023/06/16 00:46:26;;;;;;;3.90;3.50;;;;;23.50;100744.00;;;;2080381;28;20221;-56
2023/06/16 00:47:27;;;;;;;4.55;3.63;;;;;23.50;100749.00;;;;2063679;28;20240;-55
2023/06/16 00:48:27;;;;;;;5.70;4.03;;;;;23.50;100747.00;;;;2058726;28;20626;-54
2023/06/16 00:49:27;;;;;;;5.30;3.30;;;;;23.50;100750.00;;;;2050996;28;20223;-55
2023/06/16 00:50:27;;;;;;;3.80;3.50;;;;;23.50;100748.00;;;;2065098;28;20233;-55
2023/06/16 00:51:28;;;;;;;5.13;3.60;;;;;23.40;100754.00;;;;2075646;28;20214;-56
2023/06/16 00:52:30;;;;;;;4.13;3.80;;;;;23.50;100752.00;;;;2067855;28;20255;-56
2023/06/16 00:53:31;;;;;;;4.30;3.90;;;;;23.50;100741.00;;;;2058652;28;20355;-57
2023/06/16 00:54:32;;;;;;;5.47;3.80;;;;;23.50;100742.00;;;;2062402;28;20221;-55
2023/06/16 00:55:32;;;;;;;3.80;3.50;;;;;23.50;100757.00;;;;2068349;28;20221;-56
2023/06/16 00:56:33;;;;;;;3.73;3.40;;;;;23.40;100744.00;;;;2081089;28;20212;-56
2023/06/16 00:57:34;;;;;;;3.70;3.40;;;;;23.50;100745.00;;;;2076771;28;20787;-56
2023/06/16 00:58:34;;;;;;;3.97;3.57;;;;;23.40;100748.00;;;;2049452;28;20199;-55
2023/06/16 00:59:35;;;;;;;3.70;3.40;;;;;23.40;100747.00;;;;2055865;28;20277;-56
2023/06/16 01:00:36;;;;;;;4.40;3.60;;;;;23.40;100773.00;;;;2067928;28;20217;-55
2023/06/16 01:01:38;;;;;;;3.50;3.20;;;;;23.40;100744.00;;;;2070574;28;20214;-56
2023/06/16 01:02:38;;;;;;;3.90;3.60;;;;;23.40;100745.00;;;;2065634;28;20250;-56
2023/06/16 01:03:39;;;;;;;5.50;3.70;;;;;23.40;100746.00;;;;2050437;28;20679;-56
2023/06/16 01:04:40;;;;;;;3.40;3.10;;;;;23.40;100743.00;;;;2070589;28;20305;-55
2023/06/16 01:05:41;;;;;;;3.83;3.38;;;;;23.40;100736.00;;;;2076639;28;20716;-55
2023/06/16 01:07:11;;;;;;;4.43;3.60;;;;;23.40;100751.00;;;;2076089;28;20285;-56
2023/06/16 01:08:35;;;;;;;4.38;3.97;;;;;23.40;100739.00;;;;2055169;28;20226;-55
2023/06/16 01:09:59;;;;;;;3.75;3.40;;;;;23.40;100744.00;;;;2064814;28;20236;-56
2023/06/16 01:11:02;;;;;;;3.55;3.25;;;;;23.40;100739.00;;;;2071162;28;20233;-55
2023/06/16 01:12:36;;;;;;;4.60;3.53;;;;;23.40;100746.00;;;;2076990;28;20725;-55
2023/06/16 01:13:43;;;;;;;4.63;3.75;;;;;23.40;100748.00;;;;2063856;28;20229;-55
2023/06/16 01:14:52;;;;;;;4.68;4.15;;;;;23.40;100753.00;;;;2065383;28;20305;-56
2023/06/16 01:15:53;;;;;;;4.57;4.10;;;;;23.40;100750.00;;;;2060939;28;20298;-55
2023/06/16 01:16:53;;;;;;;3.90;3.60;;;;;23.40;100748.00;;;;2068250;28;20211;-55
2023/06/16 01:17:55;;;;;;;5.63;3.83;;;;;23.40;100753.00;;;;2085174;28;20219;-55
2023/06/16 01:18:55;;;;;;;4.07;3.65;;;;;23.40;100748.00;;;;2054339;28;20359;-56
2023/06/16 01:20:06;;;;;;;4.13;3.73;;;;;23.40;100749.00;;;;2060209;28;20475;-55
2023/06/16 01:21:31;;;;;;;4.57;3.60;;;;;23.40;100749.00;;;;2063513;28;20233;-55
2023/06/16 01:22:38;;;;;;;4.28;3.88;;;;;23.40;100749.00;;;;2069105;28;20254;-56
2023/06/16 01:23:50;;;;;;;3.80;3.50;;;;;23.40;100751.00;;;;2062670;28;20225;-55
2023/06/16 01:24:53;;;;;;;5.30;3.75;;;;;23.40;100749.00;;;;2071059;28;20222;-56
2023/06/16 01:25:56;;;;;;;5.13;3.67;;;;;23.40;100751.00;;;;2057434;28;20716;-56
2023/06/16 01:26:58;;;;;;;4.35;3.72;;;;;23.40;100743.00;;;;2053236;28;20559;-56
2023/06/16 01:28:00;;;;;;;4.50;3.80;;;;;23.40;100750.00;;;;2061486;28;20229;-56
2023/06/16 01:29:02;;;;;;;3.50;3.08;;;;;23.40;100750.00;;;;2066697;28;20252;-56
2023/06/16 01:30:02;;;;;;;4.78;4.00;;;;;23.30;100748.00;;;;2068322;28;20690;-56
2023/06/16 01:31:03;;;;;;;5.30;4.00;;;;;23.30;100746.00;;;;2054449;28;20225;-57
2023/06/16 01:32:04;;;;;;;3.67;3.37;;;;;23.30;100744.00;;;;2059678;28;20215;-55
2023/06/16 01:33:04;;;;;;;4.17;3.80;;;;;23.40;100747.00;;;;2067250;28;20214;-56
2023/06/16 01:34:05;;;;;;;5.30;3.90;;;;;23.40;100753.00;;;;2062886;28;20469;-56
2023/06/16 01:35:06;;;;;;;3.87;3.40;;;;;23.40;100747.00;;;;2074065;28;20294;-56
2023/06/16 01:36:06;;;;;;;4.37;3.97;;;;;23.40;100746.00;;;;2068079;28;20305;-56
2023/06/16 01:37:06;;;;;;;3.50;3.20;;;;;23.30;100752.00;;;;2081186;28;20471;-56
2023/06/16 01:38:07;;;;;;;3.87;3.50;;;;;23.30;100746.00;;;;2068624;28;20284;-55
2023/06/16 01:39:07;;;;;;;4.77;3.37;;;;;23.30;100753.00;;;;2053649;28;20218;-56
2023/06/16 01:40:08;;;;;;;4.30;3.90;;;;;23.40;100740.00;;;;2075332;28;20244;-56
2023/06/16 01:41:09;;;;;;;5.47;4.07;;;;;23.30;100723.00;;;;2076526;28;20220;-56
2023/06/16 01:42:09;;;;;;;4.00;3.50;;;;;23.30;100747.00;;;;2066072;28;20218;-55
2023/06/16 01:43:10;;;;;;;4.63;4.10;;;;;23.30;100755.00;;;;2067506;28;20619;-56
2023/06/16 01:44:10;;;;;;;3.93;3.63;;;;;23.30;100745.00;;;;2048246;28;20242;-55
2023/06/16 01:45:11;;;;;;;4.40;4.00;;;;;23.30;100739.00;;;;2052613;28;20247;-56
2023/06/16 01:46:12;;;;;;;3.73;3.37;;;;;23.30;100743.00;;;;2067949;28;20218;-56
2023/06/16 01:47:12;;;;;;;4.77;3.90;;;;;23.30;100744.00;;;;2069325;28;20224;-55
2023/06/16 01:48:12;;;;;;;5.17;3.87;;;;;23.40;100739.00;;;;2074701;28;20527;-56
2023/06/16 01:49:13;;;;;;;4.00;3.60;;;;;23.30;100747.00;;;;2043854;28;20222;-56
2023/06/16 01:50:13;;;;;;;3.97;3.67;;;;;23.30;100731.00;;;;2058631;28;20251;-56
2023/06/16 01:51:14;;;;;;;4.13;3.50;;;;;23.30;100747.00;;;;2053201;28;20223;-56
2023/06/16 01:52:14;;;;;;;3.23;2.90;;;;;23.30;100747.00;;;;2066481;28;20215;-55
2023/06/16 01:53:15;;;;;;;4.17;3.63;;;;;23.30;100745.00;;;;2067553;28;20449;-56
2023/06/16 01:54:15;;;;;;;3.57;3.27;;;;;23.30;100743.00;;;;2065081;28;20218;-57
2023/06/16 01:55:15;;;;;;;4.20;3.37;;;;;23.30;100746.00;;;;2081543;28;20210;-56
2023/06/16 01:56:16;;;;;;;3.70;3.30;;;;;23.30;100746.00;;;;2083538;28;20828;-57
2023/06/16 01:57:16;;;;;;;4.00;3.60;;;;;23.30;100750.00;;;;2084739;28;20595;-56
2023/06/16 01:58:17;;;;;;;5.87;3.37;;;;;23.30;100743.00;;;;2085039;28;20286;-57
2023/06/16 01:59:17;;;;;;;5.30;4.07;;;;;23.30;100750.00;;;;2063332;28;20221;-58
2023/06/16 02:00:21;;;;;;;4.53;3.27;;;;;23.30;100739.00;;;;2074330;28;20860;-58
2023/06/16 02:01:40;;;;;;;4.57;3.38;;;;;23.30;100743.00;;;;2069530;28;20297;-56
2023/06/16 02:02:52;;;;;;;5.28;3.20;;;;;23.30;100739.00;;;;2070468;28;20647;-56
2023/06/16 02:04:03;;;;;;;3.70;3.38;;;;;23.30;100743.00;;;;2059567;28;20675;-57
2023/06/16 02:05:04;;;;;;;3.97;3.20;;;;;23.30;100745.00;;;;2069101;28;20737;-56
2023/06/16 02:06:07;;;;;;;3.30;2.90;;;;;23.30;100662.00;;;;2052086;28;20216;-56
2023/06/16 02:07:10;;;;;;;5.60;3.83;;;;;23.30;100742.00;;;;2058848;28;20218;-56
2023/06/16 02:08:12;;;;;;;4.20;3.33;;;;;23.30;100740.00;;;;2055011;28;20223;-56
2023/06/16 02:09:13;;;;;;;4.10;3.70;;;;;23.30;100739.00;;;;2048958;28;20750;-56
2023/06/16 02:10:13;;;;;;;5.43;3.67;;;;;23.30;100743.00;;;;2067408;28;20218;-56
2023/06/16 02:11:13;;;;;;;3.90;3.43;;;;;23.20;100741.00;;;;2067778;28;20222;-56
2023/06/16 02:12:14;;;;;;;5.53;4.33;;;;;23.30;100742.00;;;;2057360;28;20611;-56
2023/06/16 02:13:14;;;;;;;5.00;3.50;;;;;23.30;100740.00;;;;2068112;28;20224;-57
2023/06/16 02:14:16;;;;;;;7.20;3.70;;;;;23.30;100750.00;;;;2057330;28;20240;-57
2023/06/16 02:15:17;;;;;;;3.92;3.53;;;;;23.30;100749.00;;;;2076439;28;20243;-56
2023/06/16 02:16:19;;;;;;;6.45;3.90;;;;;23.20;100741.00;;;;2074815;28;20802;-56
2023/06/16 02:17:19;;;;;;;4.00;3.58;;;;;23.20;100743.00;;;;2058132;28;20233;-59
2023/06/16 02:18:27;;;;;;;4.37;3.40;;;;;23.30;100740.00;;;;2057693;28;20386;-55
2023/06/16 02:19:28;;;;;;;4.00;3.60;;;;;23.20;100750.00;;;;2058757;28;20260;-56
2023/06/16 02:20:28;;;;;;;5.00;3.60;;;;;23.20;100741.00;;;;2082881;28;20209;-56
2023/06/16 02:21:29;;;;;;;4.07;3.67;;;;;23.20;100746.00;;;;2067158;28;20635;-57
2023/06/16 02:22:29;;;;;;;4.33;3.63;;;;;23.20;100749.00;;;;2063988;28;21128;-57
2023/06/16 02:23:30;;;;;;;3.77;3.47;;;;;23.20;100741.00;;;;2070419;28;20981;-57
2023/06/16 02:24:30;;;;;;;4.67;3.60;;;;;23.20;100737.00;;;;2070893;28;21103;-56
2023/06/16 02:25:30;;;;;;;5.30;3.83;;;;;23.20;100735.00;;;;2069358;28;20308;-56
2023/06/16 02:26:32;;;;;;;4.73;3.83;;;;;23.20;100738.00;;;;2075115;28;20210;-56
2023/06/16 02:27:32;;;;;;;4.25;3.85;;;;;23.20;100742.00;;;;2081228;28;20213;-57
2023/06/16 02:28:32;;;;;;;4.63;3.80;;;;;23.20;100739.00;;;;2074244;28;20873;-56
2023/06/16 02:29:33;;;;;;;3.90;2.90;;;;;23.20;100742.00;;;;2078167;28;20208;-56
2023/06/16 02:30:33;;;;;;;4.67;3.50;;;;;23.20;100737.00;;;;2083939;28;20208;-55
2023/06/16 02:31:33;;;;;;;5.73;4.30;;;;;23.20;100750.00;;;;2071596;28;20234;-55
2023/06/16 02:32:34;;;;;;;6.53;3.80;;;;;23.20;100735.00;;;;2072401;28;20235;-56
2023/06/16 02:33:34;;;;;;;4.37;3.90;;;;;23.20;100739.00;;;;2069903;28;20716;-57
2023/06/16 02:34:36;;;;;;;4.30;3.77;;;;;23.20;100734.00;;;;2079086;28;20198;-56
2023/06/16 02:35:36;;;;;;;3.70;3.40;;;;;23.20;100733.00;;;;2075932;28;20200;-56
2023/06/16 02:36:36;;;;;;;4.20;3.60;;;;;23.20;100734.00;;;;2084533;28;20687;-57
2023/06/16 02:37:37;;;;;;;4.00;3.70;;;;;23.20;100727.00;;;;2082510;28;20704;-57
2023/06/16 02:38:37;;;;;;;3.93;3.63;;;;;23.20;100730.00;;;;2061662;28;20276;-56
2023/06/16 02:39:38;;;;;;;3.90;3.60;;;;;23.20;100733.00;;;;2072045;28;20811;-56
2023/06/16 02:40:38;;;;;;;4.43;4.03;;;;;23.20;100730.00;;;;2081448;28;20200;-57
2023/06/16 02:41:38;;;;;;;4.10;3.70;;;;;23.20;100731.00;;;;2083977;28;20308;-57
2023/06/16 02:42:41;;;;;;;3.97;3.50;;;;;23.20;100732.00;;;;2067080;28;20210;-56
2023/06/16 02:43:41;;;;;;;5.40;3.95;;;;;23.20;100722.00;;;;2053883;28;20953;-55
2023/06/16 02:44:42;;;;;;;4.10;3.70;;;;;23.20;100734.00;;;;2072225;28;20280;-56
2023/06/16 02:45:42;;;;;;;3.50;3.10;;;;;23.20;100729.00;;;;2072005;28;20216;-56
2023/06/16 02:46:42;;;;;;;4.50;3.40;;;;;23.20;100732.00;;;;2074733;28;20268;-57
2023/06/16 02:47:42;;;;;;;4.13;3.73;;;;;23.20;100725.00;;;;2075195;28;20308;-57
2023/06/16 02:48:43;;;;;;;4.20;3.37;;;;;23.20;100730.00;;;;2074846;28;20711;-57
2023/06/16 02:49:43;;;;;;;5.57;4.20;;;;;23.20;100723.00;;;;2084103;28;20594;-57
2023/06/16 02:50:44;;;;;;;3.97;3.63;;;;;23.20;100731.00;;;;2084914;28;20231;-55
2023/06/16 02:51:44;;;;;;;4.40;3.97;;;;;23.20;100728.00;;;;2080890;28;20241;-57
2023/06/16 02:52:44;;;;;;;3.93;3.63;;;;;23.20;100735.00;;;;2084873;28;20225;-57
2023/06/16 02:53:46;;;;;;;5.57;3.80;;;;;23.20;100733.00;;;;2074452;28;20217;-56
2023/06/16 02:54:46;;;;;;;3.42;3.13;;;;;23.20;100730.00;;;;2081336;28;20250;-56
2023/06/16 02:55:46;;;;;;;4.00;3.70;;;;;23.20;100726.00;;;;2082957;28;20632;-57
2023/06/16 02:56:47;;;;;;;3.50;3.20;;;;;23.20;100731.00;;;;2081713;28;20629;-56
2023/06/16 02:57:47;;;;;;;4.30;3.90;;;;;23.20;100737.00;;;;2084031;28;20579;-56
2023/06/16 02:58:47;;;;;;;4.00;3.60;;;;;23.20;100730.00;;;;2069122;28;20569;-56
2023/06/16 02:59:47;;;;;;;4.23;3.30;;;;;23.20;100726.00;;;;2084670;28;20879;-57
2023/06/16 03:00:48;;;;;;;3.93;3.43;;;;;22.90;100728.00;;;;2084879;28;20209;-57
2023/06/16 03:01:48;;;;;;;4.20;3.70;;;;;23.20;100723.00;;;;2082846;28;20282;-56
2023/06/16 03:02:49;;;;;;;6.70;3.70;;;;;23.20;100734.00;;;;2084616;28;20216;-56
2023/06/16 03:03:51;;;;;;;3.93;3.37;;;;;23.20;100728.00;;;;2070885;28;20495;-57
2023/06/16 03:04:52;;;;;;;3.38;3.08;;;;;23.10;100727.00;;;;2083200;28;20209;-56
2023/06/16 03:05:53;;;;;;;5.00;3.27;;;;;23.20;100733.00;;;;2085402;28;20209;-56
2023/06/16 03:06:57;;;;;;;3.60;3.30;;;;;23.20;100727.00;;;;2084138;28;20200;-57
2023/06/16 03:07:57;;;;;;;6.03;3.95;;;;;23.20;100727.00;;;;2086140;28;20625;-57
2023/06/16 03:08:58;;;;;;;3.60;3.30;;;;;23.10;100731.00;;;;2060553;28;20242;-57
2023/06/16 03:09:59;;;;;;;3.63;3.30;;;;;23.10;100733.00;;;;2075937;28;20213;-57
2023/06/16 03:10:59;;;;;;;4.75;3.25;;;;;23.10;100729.00;;;;2085230;28;20271;-56
2023/06/16 03:12:00;;;;;;;4.60;3.70;;;;;23.10;100733.00;;;;2085704;28;21013;-56
2023/06/16 03:13:00;;;;;;;4.17;3.53;;;;;23.10;100731.00;;;;2075393;28;20218;-56
2023/06/16 03:14:00;;;;;;;4.27;3.80;;;;;23.10;100732.00;;;;2067923;28;20316;-57
2023/06/16 03:15:01;;;;;;;4.40;4.00;;;;;23.10;100732.00;;;;2079097;28;20214;-57
2023/06/16 03:16:02;;;;;;;4.13;3.73;;;;;23.10;100729.00;;;;2082684;28;20308;-56
2023/06/16 03:17:03;;;;;;;6.00;3.58;;;;;23.10;100731.00;;;;2086117;28;20209;-57
2023/06/16 03:18:03;;;;;;;4.30;3.93;;;;;23.20;100726.00;;;;2081648;28;20300;-56
2023/06/16 03:19:04;;;;;;;4.43;3.43;;;;;23.10;100736.00;;;;2076409;28;20598;-57
2023/06/16 03:20:05;;;;;;;4.63;3.87;;;;;23.10;100727.00;;;;2076003;28;20214;-56
2023/06/16 03:21:05;;;;;;;4.88;3.40;;;;;23.20;100726.00;;;;2077043;28;20213;-57
2023/06/16 03:22:06;;;;;;;4.03;3.63;;;;;23.20;100734.00;;;;2077439;28;20212;-56
2023/06/16 03:23:07;;;;;;;4.40;4.00;;;;;23.10;100723.00;;;;2085238;28;20942;-56
2023/06/16 03:24:07;;;;;;;4.37;3.97;;;;;23.10;100729.00;;;;2072417;28;20563;-57
2023/06/16 03:25:07;;;;;;;4.17;3.80;;;;;23.10;100730.00;;;;2071094;28;20747;-56
2023/06/16 03:26:08;;;;;;;4.20;3.57;;;;;23.10;100727.00;;;;2070512;28;20218;-56
2023/06/16 03:27:09;;;;;;;4.33;3.63;;;;;23.10;100744.00;;;;2083781;28;20209;-56
2023/06/16 03:28:09;;;;;;;4.40;4.00;;;;;23.10;100730.00;;;;2077952;28;20213;-57
2023/06/16 03:29:10;;;;;;;4.00;3.60;;;;;23.10;100731.00;;;;2067947;28;20717;-57
2023/06/16 03:30:10;;;;;;;3.70;3.30;;;;;23.10;100724.00;;;;2067987;28;20734;-56
2023/06/16 03:31:11;;;;;;;4.37;3.97;;;;;23.10;100729.00;;;;2061210;28;20235;-56
2023/06/16 03:32:11;;;;;;;3.90;3.30;;;;;23.10;100734.00;;;;2084184;28;20255;-56
2023/06/16 03:33:11;;;;;;;4.20;3.67;;;;;23.10;100736.00;;;;2078186;28;20220;-57
2023/06/16 03:34:11;;;;;;;5.03;3.17;;;;;23.00;100728.00;;;;2071102;28;20226;-57
2023/06/16 03:35:12;;;;;;;4.07;3.63;;;;;23.10;100734.00;;;;2084899;28;20262;-57
2023/06/16 03:36:12;;;;;;;4.13;3.80;;;;;23.10;100736.00;;;;2085389;28;20217;-56
2023/06/16 03:37:12;;;;;;;4.33;3.60;;;;;23.10;100739.00;;;;2085127;28;20279;-56
2023/06/16 03:38:13;;;;;;;3.50;3.20;;;;;23.10;100734.00;;;;2086042;28;20344;-57
2023/06/16 03:39:13;;;;;;;5.43;4.40;;;;;23.10;100736.00;;;;2071631;28;20229;-57
2023/06/16 03:40:14;;;;;;;4.67;4.00;;;;;23.10;100729.00;;;;2078473;28;20217;-56
2023/06/16 03:41:14;;;;;;;3.50;3.20;;;;;23.10;100730.00;;;;2076293;28;20681;-57
2023/06/16 03:42:15;;;;;;;3.87;3.53;;;;;23.00;100735.00;;;;2074873;28;20279;-56
2023/06/16 03:43:15;;;;;;;4.27;3.70;;;;;23.10;100740.00;;;;2085983;28;20213;-56
2023/06/16 03:44:16;;;;;;;3.73;3.30;;;;;23.00;100735.00;;;;2063609;28;20681;-57
2023/06/16 03:45:16;;;;;;;3.83;3.53;;;;;23.10;100734.00;;;;2060430;28;20561;-57
2023/06/16 03:46:16;;;;;;;3.67;3.30;;;;;23.10;100728.00;;;;2073394;28;20225;-57
2023/06/16 03:47:16;;;;;;;4.87;3.40;;;;;23.10;100732.00;;;;2085417;28;20696;-57
2023/06/16 03:48:17;;;;;;;4.17;3.77;;;;;23.10;100739.00;;;;2084456;28;20626;-56
2023/06/16 03:49:17;;;;;;;3.90;3.60;;;;;23.10;100736.00;;;;2075667;28;20615;-56
2023/06/16 03:50:17;;;;;;;4.17;3.77;;;;;23.10;100734.00;;;;2084710;28;20223;-56
2023/06/16 03:51:18;;;;;;;6.40;4.03;;;;;23.10;100732.00;;;;2084625;28;20213;-56
2023/06/16 03:52:18;;;;;;;4.40;3.83;;;;;23.10;100734.00;;;;2084197;28;20302;-56
2023/06/16 03:53:20;;;;;;;4.40;4.00;;;;;23.10;100729.00;;;;2073391;28;20213;-56
2023/06/16 03:54:20;;;;;;;4.07;3.70;;;;;23.10;100728.00;;;;2074860;28;20213;-57
2023/06/16 03:55:20;;;;;;;3.67;3.27;;;;;23.10;100731.00;;;;2077893;28;20221;-56
2023/06/16 03:56:21;;;;;;;3.90;3.30;;;;;23.10;100736.00;;;;2079904;28;20624;-56
2023/06/16 03:57:21;;;;;;;4.07;3.77;;;;;23.10;100753.00;;;;2082567;28;20975;-55
2023/06/16 03:58:22;;;;;;;4.87;4.40;;;;;23.10;100725.00;;;;2078690;28;20910;-56
2023/06/16 03:59:22;;;;;;;4.50;4.10;;;;;23.10;100728.00;;;;2065358;28;20213;-57
2023/06/16 04:00:22;;;;;;;5.30;3.40;;;;;23.10;100725.00;;;;2073600;28;20218;-57
2023/06/16 04:01:24;;;;;;;4.13;3.73;;;;;23.00;100725.00;;;;2085534;28;20320;-57
2023/06/16 04:02:25;;;;;;;6.22;4.35;;;;;23.10;100728.00;;;;2064938;28;20583;-56
2023/06/16 04:03:26;;;;;;;3.87;3.50;;;;;23.10;100723.00;;;;2069161;28;20222;-57
2023/06/16 04:04:26;;;;;;;4.27;3.87;;;;;23.00;100733.00;;;;2057466;28;20294;-56
2023/06/16 04:05:26;;;;;;;6.30;3.80;;;;;23.00;100732.00;;;;2075332;28;20594;-57
2023/06/16 04:06:27;;;;;;;4.60;4.20;;;;;23.00;100734.00;;;;2082343;28;20841;-60
2023/06/16 04:07:27;;;;;;;4.20;3.77;;;;;23.00;100733.00;;;;2081280;28;20278;-58
2023/06/16 04:08:28;;;;;;;4.50;4.10;;;;;23.00;100724.00;;;;2077234;28;20229;-58
2023/06/16 04:09:30;;;;;;;4.67;4.27;;;;;23.00;100732.00;;;;2061515;28;20233;-56
2023/06/16 04:10:30;;;;;;;4.75;4.25;;;;;23.00;100739.00;;;;2060590;28;20277;-56
2023/06/16 04:11:31;;;;;;;3.93;3.53;;;;;23.00;100729.00;;;;2068329;28;20260;-56
2023/06/16 04:12:32;;;;;;;4.60;4.20;;;;;23.00;100733.00;;;;2074843;28;21760;-57
2023/06/16 04:13:32;;;;;;;4.70;3.93;;;;;23.00;100737.00;;;;2058854;28;20454;-57
2023/06/16 04:14:32;;;;;;;5.80;3.73;;;;;23.10;100737.00;;;;2061059;28;20211;-57
2023/06/16 04:15:33;;;;;;;4.30;3.90;;;;;23.10;100736.00;;;;2084889;28;20327;-56
2023/06/16 04:16:33;;;;;;;4.67;4.27;;;;;23.00;100726.00;;;;2077872;28;20302;-56
2023/06/16 04:17:33;;;;;;;3.83;3.50;;;;;23.00;100736.00;;;;2084904;28;20197;-56
2023/06/16 04:18:35;;;;;;;4.40;4.00;;;;;23.00;100732.00;;;;2075413;28;20227;-57
2023/06/16 04:19:35;;;;;;;4.70;4.10;;;;;23.00;100736.00;;;;2083726;28;20205;-56
2023/06/16 04:20:35;;;;;;;9.03;4.53;;;;;23.00;100742.00;;;;2074409;28;20202;-56
2023/06/16 04:21:36;;;;;;;5.50;3.97;;;;;23.00;100735.00;;;;2071573;28;20209;-56
2023/06/16 04:22:37;;;;;;;4.87;4.20;;;;;23.00;100739.00;;;;2082407;28;20202;-57
2023/06/16 04:23:38;;;;;;;5.05;4.55;;;;;23.10;100735.00;;;;2053267;28;20287;-57
2023/06/16 04:24:38;;;;;;;4.70;3.97;;;;;23.00;100729.00;;;;2064940;28;20199;-57
2023/06/16 04:25:38;;;;;;;4.23;3.83;;;;;23.00;100738.00;;;;2077478;28;20217;-57
2023/06/16 04:26:41;;;;;;;6.53;4.13;;;;;23.00;100735.00;;;;2084279;28;20303;-56
2023/06/16 04:27:43;;;;;;;4.30;3.90;;;;;23.00;100734.00;;;;2085016;28;20224;-56
2023/06/16 04:28:44;;;;;;;4.57;3.70;;;;;23.00;100741.00;;;;2071897;28;20224;-56
2023/06/16 04:29:46;;;;;;;5.53;3.97;;;;;23.00;100738.00;;;;2076788;28;20221;-57
2023/06/16 04:30:47;;;;;;;5.10;4.70;;;;;23.00;100733.00;;;;2080504;28;20561;-57
2023/06/16 04:31:48;;;;;;;4.40;3.93;;;;;23.00;100744.00;;;;2080086;28;20248;-57
2023/06/16 04:32:49;;;;;;;5.85;4.30;;;;;23.00;100740.00;;;;2085234;28;20362;-56
2023/06/16 04:33:49;;;;;;;5.37;4.30;;;;;23.00;100749.00;;;;2074426;28;20286;-56
2023/06/16 04:34:51;;;;;;;5.20;4.40;;;;;23.00;100743.00;;;;2085053;28;20499;-57
2023/06/16 04:35:52;;;;;;;4.10;3.70;;;;;23.00;100736.00;;;;2082165;28;20740;-57
2023/06/16 04:36:57;;;;;;;4.43;3.83;;;;;22.80;100744.00;;;;2082537;28;20224;-55
2023/06/16 04:37:58;;;;;;;5.43;4.38;;;;;23.00;100737.00;;;;2080975;28;20221;-61
2023/06/16 04:38:59;;;;;;;4.80;4.35;;;;;23.00;100742.00;;;;2066799;28;20233;-57
2023/06/16 04:40:00;;;;;;;4.57;4.13;;;;;23.00;100740.00;;;;2070618;28;20304;-56
2023/06/16 04:41:00;;;;;;;7.57;3.90;;;;;23.00;100736.00;;;;2077882;28;20475;-56
2023/06/16 04:42:02;;;;;;;4.70;4.00;;;;;23.00;100740.00;;;;2082143;28;20455;-57
2023/06/16 04:43:03;;;;;;;5.45;4.22;;;;;23.00;100736.00;;;;2084587;28;20247;-57
2023/06/16 04:44:03;;;;;;;5.23;4.73;;;;;23.00;100737.00;;;;2060431;28;20236;-57
2023/06/16 04:45:04;;;;;;;5.87;4.70;;;;;23.00;100737.00;;;;2075708;28;20319;-56
2023/06/16 04:46:04;;;;;;;4.60;4.00;;;;;23.00;100736.00;;;;2078064;28;20224;-56
2023/06/16 04:47:05;;;;;;;4.80;4.10;;;;;23.00;100741.00;;;;2083642;28;20967;-56
2023/06/16 04:48:05;;;;;;;4.87;4.33;;;;;23.00;100743.00;;;;2079022;28;20268;-56
2023/06/16 04:49:06;;;;;;;5.60;4.27;;;;;23.00;100732.00;;;;2074931;28;20257;-57
2023/06/16 04:50:08;;;;;;;5.83;4.07;;;;;23.00;100736.00;;;;2083971;28;20240;-57
2023/06/16 04:51:09;;;;;;;4.22;3.88;;;;;23.00;100737.00;;;;2075882;28;20941;-57
2023/06/16 04:52:09;;;;;;;6.00;4.00;;;;;23.00;100740.00;;;;2073809;28;20316;-56
2023/06/16 04:53:09;;;;;;;5.07;4.57;;;;;23.00;100741.00;;;;2081964;28;20217;-57
2023/06/16 04:54:10;;;;;;;5.33;4.20;;;;;23.00;100739.00;;;;2074094;28;20224;-57
2023/06/16 04:55:10;;;;;;;4.27;3.87;;;;;23.00;100737.00;;;;2076725;28;20962;-56
2023/06/16 04:56:10;;;;;;;4.97;3.90;;;;;23.10;100735.00;;;;2084734;28;20638;-56
2023/06/16 04:57:11;;;;;;;4.93;4.53;;;;;23.00;100733.00;;;;2083184;28;20455;-56
2023/06/16 04:58:11;;;;;;;5.70;4.40;;;;;23.00;100737.00;;;;2081615;28;20220;-57
2023/06/16 04:59:12;;;;;;;4.90;3.90;;;;;23.00;100736.00;;;;2069507;28;20225;-56
2023/06/16 05:00:12;;;;;;;5.87;4.50;;;;;23.00;100738.00;;;;2068205;28;20334;-57
2023/06/16 05:01:13;;;;;;;5.00;4.50;;;;;23.00;100740.00;;;;2067776;28;20221;-57
2023/06/16 05:02:14;;;;;;;5.00;4.60;;;;;23.10;100743.00;;;;2067552;28;21225;-57
2023/06/16 05:03:14;;;;;;;11.98;4.28;;;;;23.10;100734.00;;;;2076204;28;20205;-57
2023/06/16 05:04:15;;;;;;;5.40;3.83;;;;;23.10;100737.00;;;;2070655;28;20221;-57